Time;durP1;ratioP1;P1;durP2;ratioP2;P2;SDS_P1;SDS_P2;PMS_P1;PMS_P2;Temp;Humidity;BMP_temperature;BMP_pressure;BME280_temperature;BME280_humidity;BME280_pressure;Samples;Min_cycle;Max_cycle;Signal;HPM_P1;HPM_P2
2024/03/15 00:01:03;;;;;;;9.63;1.98;;;12.50;99.90;;;;;;4999426;28;20065;-67
2024/03/15 00:03:30;;;;;;;10.05;1.77;;;12.50;99.90;;;;;;5002860;28;20050;-67
2024/03/15 00:05:57;;;;;;;6.97;1.67;;;12.40;99.90;;;;;;5008508;28;20061;-66
2024/03/15 00:08:24;;;;;;;10.85;2.22;;;12.40;99.90;;;;;;5004779;28;20038;-67
2024/03/15 00:10:51;;;;;;;7.70;1.48;;;12.40;99.90;;;;;;5009414;28;20131;-67
2024/03/15 00:13:18;;;;;;;9.73;1.75;;;12.40;99.90;;;;;;5008497;28;20133;-66
2024/03/15 00:15:45;;;;;;;11.07;2.15;;;12.40;99.90;;;;;;5007868;28;20065;-67
2024/03/15 00:18:12;;;;;;;8.25;1.60;;;12.40;99.90;;;;;;5006516;28;20436;-67
2024/03/15 00:20:39;;;;;;;8.82;2.05;;;12.40;99.90;;;;;;5008005;28;20049;-67
2024/03/15 00:23:07;;;;;;;14.20;2.35;;;12.40;99.90;;;;;;5008796;28;20037;-67
2024/03/15 00:25:35;;;;;;;8.45;1.98;;;12.40;99.90;;;;;;5014368;28;20092;-66
2024/03/15 00:28:02;;;;;;;7.18;1.90;;;12.40;99.90;;;;;;5020950;28;20508;-68
2024/03/15 00:30:29;;;;;;;12.30;2.80;;;12.40;99.90;;;;;;5004894;28;20049;-65
2024/03/15 00:32:57;;;;;;;12.27;2.30;;;12.40;99.90;;;;;;5008173;28;20082;-65
2024/03/15 00:35:26;;;;;;;14.35;3.10;;;12.40;99.90;;;;;;5009649;28;20058;-66
2024/03/15 00:37:53;;;;;;;14.55;2.83;;;12.40;99.90;;;;;;5005544;28;20057;-66
2024/03/15 00:40:21;;;;;;;17.90;2.83;;;12.40;99.90;;;;;;5003909;28;20050;-66
2024/03/15 00:42:47;;;;;;;13.88;2.25;;;12.50;99.90;;;;;;5015508;28;20089;-65
2024/03/15 00:45:14;;;;;;;10.20;1.95;;;12.40;99.90;;;;;;5008611;28;20112;-66
2024/03/15 00:47:41;;;;;;;16.60;3.00;;;12.40;99.90;;;;;;5002975;28;20504;-66
2024/03/15 00:50:09;;;;;;;13.18;2.53;;;12.40;99.90;;;;;;5003815;28;20049;-66
2024/03/15 00:52:37;;;;;;;18.23;2.92;;;12.40;99.90;;;;;;5007659;28;20485;-66
2024/03/15 00:55:05;;;;;;;9.57;2.63;;;12.40;99.90;;;;;;5008741;28;20048;-65
2024/03/15 00:57:32;;;;;;;11.50;2.55;;;12.40;99.90;;;;;;5012794;28;20050;-66
2024/03/15 00:59:58;;;;;;;14.93;3.20;;;12.40;99.90;;;;;;5009014;28;20523;-66
2024/03/15 01:02:25;;;;;;;12.38;2.67;;;12.50;99.90;;;;;;5009657;28;20089;-67
2024/03/15 01:04:57;;;;;;;11.55;2.33;;;12.40;99.90;;;;;;5007348;28;20065;-68
2024/03/15 01:07:23;;;;;;;20.42;3.17;;;12.40;99.90;;;;;;5009905;28;20046;-67
2024/03/15 01:09:50;;;;;;;11.18;2.22;;;12.40;99.90;;;;;;5022072;28;20556;-67
2024/03/15 01:12:17;;;;;;;15.77;2.70;;;12.40;99.90;;;;;;5011458;28;20046;-67
2024/03/15 01:14:45;;;;;;;11.13;2.10;;;12.40;99.90;;;;;;5023578;28;20527;-67
2024/03/15 01:17:12;;;;;;;10.60;2.42;;;12.40;99.90;;;;;;5006832;28;20042;-67
2024/03/15 01:19:39;;;;;;;17.52;3.75;;;12.40;99.90;;;;;;4998959;28;20408;-67
2024/03/15 01:22:07;;;;;;;10.65;2.22;;;12.40;99.90;;;;;;5007913;28;20056;-67
2024/03/15 01:24:34;;;;;;;11.18;2.20;;;12.40;99.90;;;;;;4997450;28;20049;-66
2024/03/15 01:27:01;;;;;;;14.18;3.42;;;12.40;99.90;;;;;;4999808;28;20391;-67
2024/03/15 01:29:28;;;;;;;9.85;2.28;;;12.40;99.90;;;;;;5004805;28;20046;-67
2024/03/15 01:31:56;;;;;;;10.25;2.30;;;12.40;99.90;;;;;;5024128;28;20413;-67
2024/03/15 01:34:23;;;;;;;9.82;2.40;;;12.40;99.90;;;;;;5003954;28;20398;-67
2024/03/15 01:36:50;;;;;;;12.77;2.30;;;12.40;99.90;;;;;;5003277;28;20049;-66
2024/03/15 01:39:18;;;;;;;8.85;2.58;;;12.40;99.90;;;;;;5006252;28;20107;-67
2024/03/15 01:41:45;;;;;;;14.35;2.35;;;12.40;99.90;;;;;;5008545;28;20125;-67
2024/03/15 01:44:13;;;;;;;10.13;2.97;;;12.40;99.90;;;;;;5002861;28;20046;-67
2024/03/15 01:46:41;;;;;;;10.18;3.40;;;12.30;99.90;;;;;;5002408;28;20058;-67
2024/03/15 01:49:08;;;;;;;15.73;3.15;;;12.30;99.90;;;;;;5007465;28;20073;-67
2024/03/15 01:51:36;;;;;;;19.58;3.10;;;12.30;99.90;;;;;;5006987;28;20050;-66
2024/03/15 01:54:03;;;;;;;16.25;2.60;;;12.30;99.90;;;;;;5009322;28;20133;-67
2024/03/15 01:56:30;;;;;;;9.80;2.28;;;12.30;99.90;;;;;;5005060;28;20065;-66
2024/03/15 01:58:57;;;;;;;12.45;3.70;;;12.30;99.90;;;;;;5006797;28;20042;-67
2024/03/15 02:01:24;;;;;;;12.98;2.75;;;12.30;99.90;;;;;;5005391;28;20493;-67
2024/03/15 02:03:52;;;;;;;9.13;2.15;;;12.30;99.90;;;;;;5005787;28;20104;-67
2024/03/15 02:06:21;;;;;;;6.65;1.90;;;12.20;99.90;;;;;;5018769;28;20047;-67
2024/03/15 02:08:49;;;;;;;19.08;3.20;;;12.20;99.90;;;;;;5008044;28;20112;-67
2024/03/15 02:11:16;;;;;;;14.55;2.63;;;12.20;99.90;;;;;;5018922;28;20050;-66
2024/03/15 02:13:43;;;;;;;13.43;2.28;;;12.20;99.90;;;;;;5001397;28;20042;-66
2024/03/15 02:16:11;;;;;;;9.15;1.88;;;12.20;99.90;;;;;;4997596;28;20046;-66
2024/03/15 02:18:38;;;;;;;8.98;2.42;;;12.20;99.90;;;;;;5000776;28;20050;-66
2024/03/15 02:21:05;;;;;;;8.32;2.08;;;12.30;99.90;;;;;;5005003;28;20168;-66
2024/03/15 02:23:32;;;;;;;12.60;3.08;;;12.30;99.90;;;;;;5002449;28;20141;-66
2024/03/15 02:25:59;;;;;;;15.70;2.13;;;12.20;99.90;;;;;;5018359;28;20057;-66
2024/03/15 02:28:25;;;;;;;14.40;2.38;;;12.30;99.90;;;;;;5000534;28;20058;-66
2024/03/15 02:30:52;;;;;;;11.82;2.25;;;12.20;99.90;;;;;;5002693;28;20080;-66
2024/03/15 02:33:19;;;;;;;18.58;2.95;;;12.20;99.90;;;;;;5017953;28;20046;-67
2024/03/15 02:35:46;;;;;;;10.43;2.22;;;12.20;99.90;;;;;;5004140;28;20061;-66
2024/03/15 02:38:13;;;;;;;16.10;3.13;;;12.10;99.90;;;;;;5004624;28;20359;-66
2024/03/15 02:40:40;;;;;;;7.70;2.60;;;12.10;99.90;;;;;;5009645;28;20061;-66
2024/03/15 02:43:06;;;;;;;17.38;2.55;;;12.10;99.90;;;;;;5007616;28;20045;-66
2024/03/15 02:45:34;;;;;;;16.52;3.03;;;12.10;99.90;;;;;;5005402;28;20054;-65
2024/03/15 02:48:01;;;;;;;16.10;2.88;;;12.10;99.90;;;;;;5004611;28;20041;-68
2024/03/15 02:50:28;;;;;;;12.85;3.00;;;12.10;99.90;;;;;;5006378;28;20132;-66
2024/03/15 02:52:55;;;;;;;13.98;2.45;;;12.00;99.90;;;;;;5006804;28;20046;-67
2024/03/15 02:55:24;;;;;;;13.75;2.33;;;12.00;99.90;;;;;;5005382;28;20505;-66
2024/03/15 02:57:51;;;;;;;17.10;2.90;;;12.10;99.90;;;;;;5005668;28;20571;-66
2024/03/15 03:00:18;;;;;;;15.35;2.40;;;12.00;99.90;;;;;;5004527;28;20539;-67
2024/03/15 03:02:45;;;;;;;18.55;3.72;;;12.00;99.90;;;;;;5007732;28;20049;-67
2024/03/15 03:05:12;;;;;;;25.10;4.18;;;12.00;99.90;;;;;;5007058;28;20052;-67
2024/03/15 03:07:39;;;;;;;14.13;2.85;;;12.10;99.90;;;;;;5021980;28;20076;-67
2024/03/15 03:10:06;;;;;;;12.43;2.30;;;12.10;99.90;;;;;;5004082;28;20563;-67
2024/03/15 03:12:33;;;;;;;16.58;3.15;;;12.00;99.90;;;;;;4995444;28;20136;-67
2024/03/15 03:15:00;;;;;;;13.50;2.47;;;12.00;99.90;;;;;;5003899;28;20519;-67
2024/03/15 03:17:27;;;;;;;13.85;2.42;;;12.00;99.90;;;;;;5005294;28;20063;-67
2024/03/15 03:19:53;;;;;;;10.13;2.55;;;12.00;99.90;;;;;;5005963;28;20127;-67
2024/03/15 03:22:20;;;;;;;8.60;2.17;;;11.90;99.90;;;;;;5005532;28;20115;-67
2024/03/15 03:24:47;;;;;;;18.30;2.90;;;11.90;99.90;;;;;;5001841;28;20053;-67
2024/03/15 03:27:14;;;;;;;14.90;2.97;;;11.90;99.90;;;;;;5004804;28;20104;-67
2024/03/15 03:29:41;;;;;;;24.35;4.07;;;11.80;99.90;;;;;;5004576;28;20073;-67
2024/03/15 03:32:08;;;;;;;20.13;2.58;;;11.80;99.90;;;;;;5006013;28;20081;-66
2024/03/15 03:34:39;;;;;;;16.40;4.22;;;11.80;99.90;;;;;;5005856;28;20060;-66
2024/03/15 03:37:05;;;;;;;17.20;2.75;;;11.80;99.90;;;;;;5008972;28;20041;-67
2024/03/15 03:39:32;;;;;;;13.85;2.88;;;11.70;99.90;;;;;;5007750;28;20111;-66
2024/03/15 03:42:02;;;;;;;15.82;2.70;;;11.70;99.90;;;;;;5008280;28;20052;-67
2024/03/15 03:44:29;;;;;;;28.17;5.18;;;11.70;99.90;;;;;;5004611;28;20508;-67
2024/03/15 03:46:56;;;;;;;21.35;4.75;;;11.60;99.90;;;;;;5005036;28;20062;-67
2024/03/15 03:49:23;;;;;;;16.15;3.08;;;11.60;99.90;;;;;;5006781;28;20485;-67
2024/03/15 03:51:50;;;;;;;16.10;2.20;;;11.70;99.90;;;;;;5006189;28;20045;-67
2024/03/15 03:54:17;;;;;;;17.10;2.90;;;11.60;99.90;;;;;;5005911;28;20137;-67
2024/03/15 03:56:44;;;;;;;10.75;2.35;;;11.70;99.90;;;;;;5006784;28;20093;-66
2024/03/15 03:59:11;;;;;;;12.32;3.08;;;11.60;99.90;;;;;;5006625;28;20057;-67
2024/03/15 04:01:38;;;;;;;24.63;5.63;;;11.70;99.90;;;;;;5000426;28;20108;-67
2024/03/15 04:04:05;;;;;;;24.00;3.70;;;11.70;99.90;;;;;;5006922;28;20046;-67
2024/03/15 04:06:32;;;;;;;10.88;2.92;;;11.70;99.90;;;;;;5005429;28;20038;-67
2024/03/15 04:08:59;;;;;;;14.05;2.88;;;11.70;99.90;;;;;;5014981;28;20125;-67
2024/03/15 04:11:26;;;;;;;17.90;3.38;;;11.70;99.90;;;;;;5003627;28;20507;-67
2024/03/15 04:13:53;;;;;;;16.02;3.47;;;11.80;99.90;;;;;;5006410;28;20046;-66
2024/03/15 04:16:21;;;;;;;22.83;3.10;;;11.70;99.90;;;;;;5002978;28;20042;-67
2024/03/15 04:18:48;;;;;;;18.83;2.63;;;11.70;99.90;;;;;;5005546;28;20108;-67
2024/03/15 04:21:16;;;;;;;15.27;3.92;;;11.70;99.90;;;;;;5003583;28;20050;-68
2024/03/15 04:23:43;;;;;;;13.75;2.97;;;11.70;99.90;;;;;;5005922;28;20076;-67
2024/03/15 04:26:10;;;;;;;17.95;2.53;;;11.70;99.90;;;;;;5003340;28;20042;-67
2024/03/15 04:28:38;;;;;;;18.00;3.38;;;11.70;99.90;;;;;;5005386;28;20050;-67
2024/03/15 04:31:05;;;;;;;19.80;3.10;;;11.80;99.90;;;;;;5002612;28;20046;-67
2024/03/15 04:33:33;;;;;;;15.68;3.85;;;11.70;99.90;;;;;;5005249;28;20057;-67
2024/03/15 04:36:04;;;;;;;13.50;2.80;;;11.70;99.90;;;;;;5019136;28;20045;-67
2024/03/15 04:38:32;;;;;;;22.23;4.47;;;11.70;99.90;;;;;;5003034;28;20212;-67
2024/03/15 04:41:09;;;;;;;19.70;2.97;;;11.70;99.90;;;;;;4997678;28;20085;-67
2024/03/15 04:43:36;;;;;;;22.38;4.53;;;11.80;99.90;;;;;;5004058;28;20120;-67
2024/03/15 04:46:03;;;;;;;23.77;4.30;;;11.70;99.90;;;;;;5004535;28;20060;-69
2024/03/15 04:48:30;;;;;;;20.33;3.50;;;11.70;99.90;;;;;;5003628;28;20057;-67
2024/03/15 04:50:57;;;;;;;15.88;4.18;;;11.70;99.90;;;;;;5005868;28;20126;-67
2024/03/15 04:53:24;;;;;;;23.25;3.72;;;11.70;99.90;;;;;;5009439;28;20092;-67
2024/03/15 04:55:52;;;;;;;26.77;2.85;;;11.70;99.90;;;;;;5006219;28;20048;-67
2024/03/15 04:58:21;;;;;;;23.20;3.50;;;11.60;99.90;;;;;;5008792;28;20046;-67
2024/03/15 05:00:48;;;;;;;21.77;3.30;;;11.70;99.90;;;;;;5006445;28;20513;-67
2024/03/15 05:03:15;;;;;;;25.48;4.00;;;11.70;99.90;;;;;;5007609;28;20393;-67
2024/03/15 05:05:42;;;;;;;16.95;2.88;;;11.70;99.90;;;;;;5007413;28;20512;-67
2024/03/15 05:08:09;;;;;;;26.80;5.88;;;11.70;99.90;;;;;;5008274;28;20567;-67
2024/03/15 05:10:35;;;;;;;21.08;3.50;;;11.70;99.90;;;;;;5007601;28;20104;-67
2024/03/15 05:13:06;;;;;;;32.00;4.32;;;11.70;99.90;;;;;;5008854;28;20045;-67
2024/03/15 05:15:36;;;;;;;23.65;4.03;;;11.80;99.90;;;;;;5007640;28;20054;-67
2024/03/15 05:18:04;;;;;;;17.90;3.25;;;11.80;99.90;;;;;;5010006;28;20046;-67
2024/03/15 05:20:32;;;;;;;20.50;3.17;;;11.80;99.90;;;;;;5008394;28;20049;-67
2024/03/15 05:22:59;;;;;;;13.20;2.42;;;11.70;99.90;;;;;;5003135;28;20092;-67
2024/03/15 05:25:26;;;;;;;18.85;2.90;;;11.70;99.90;;;;;;5008829;28;20523;-67
2024/03/15 05:27:53;;;;;;;16.45;2.78;;;11.60;99.90;;;;;;5008012;28;20489;-67
2024/03/15 05:30:23;;;;;;;20.45;3.53;;;11.60;99.90;;;;;;5008385;28;20088;-67
2024/03/15 05:32:50;;;;;;;21.45;3.15;;;11.60;99.90;;;;;;4994084;28;20199;-66
2024/03/15 05:35:20;;;;;;;14.38;2.90;;;11.60;99.90;;;;;;5006570;28;20042;-67
2024/03/15 05:37:48;;;;;;;20.95;3.00;;;11.70;99.90;;;;;;5008385;28;20131;-67
2024/03/15 05:40:15;;;;;;;14.35;2.42;;;11.70;99.90;;;;;;5000144;28;20046;-66
2024/03/15 05:42:42;;;;;;;23.55;4.50;;;11.70;99.90;;;;;;5006732;28;20048;-67
2024/03/15 05:45:09;;;;;;;25.95;3.33;;;11.80;99.90;;;;;;5008817;28;20062;-68
2024/03/15 05:47:36;;;;;;;18.40;2.85;;;11.80;99.90;;;;;;5008753;28;20180;-67
2024/03/15 05:50:04;;;;;;;10.25;2.80;;;11.80;99.90;;;;;;5004326;28;20046;-67
2024/03/15 05:52:34;;;;;;;17.13;3.47;;;11.80;99.90;;;;;;5005516;28;20050;-67
2024/03/15 05:55:01;;;;;;;16.25;2.88;;;11.80;99.90;;;;;;5003135;28;20049;-67
2024/03/15 05:57:29;;;;;;;16.92;3.22;;;11.80;99.90;;;;;;5011787;28;20451;-69
2024/03/15 05:59:56;;;;;;;9.10;2.38;;;11.80;99.90;;;;;;5008091;28;20100;-66
2024/03/15 06:02:23;;;;;;;18.40;2.33;;;11.80;99.90;;;;;;5005759;28;20058;-65
2024/03/15 06:04:50;;;;;;;14.55;3.33;;;11.80;99.90;;;;;;5000425;28;20038;-66
2024/03/15 06:07:17;;;;;;;14.70;2.60;;;11.80;99.90;;;;;;5005718;28;20373;-66
2024/03/15 06:09:44;;;;;;;20.33;3.15;;;11.80;99.90;;;;;;4999873;28;20084;-66
2024/03/15 06:12:10;;;;;;;16.67;2.60;;;11.80;99.90;;;;;;5001401;28;20046;-66
2024/03/15 06:14:37;;;;;;;13.90;2.22;;;11.70;99.90;;;;;;5001365;28;20038;-66
2024/03/15 06:17:06;;;;;;;11.38;2.28;;;11.70;99.90;;;;;;5005773;28;20038;-67
2024/03/15 06:19:33;;;;;;;16.33;3.20;;;11.70;99.90;;;;;;5000870;28;20513;-66
2024/03/15 06:22:00;;;;;;;20.00;3.10;;;11.80;99.90;;;;;;5006071;28;20050;-66
2024/03/15 06:24:27;;;;;;;13.95;2.55;;;11.80;99.90;;;;;;5006680;28;20045;-67
2024/03/15 06:26:54;;;;;;;12.88;2.40;;;11.90;99.90;;;;;;4999327;28;20064;-66
2024/03/15 06:29:31;;;;;;;13.60;2.67;;;11.90;99.90;;;;;;5017960;28;20138;-66
2024/03/15 06:32:03;;;;;;;14.73;2.05;;;11.90;99.90;;;;;;5004420;28;20547;-67
2024/03/15 06:34:34;;;;;;;9.95;2.00;;;11.90;99.90;;;;;;4997966;28;20328;-67
2024/03/15 06:37:06;;;;;;;10.52;2.13;;;11.90;99.90;;;;;;4998429;28;20046;-66
2024/03/15 06:42:20;;;;;;;15.90;2.95;;;11.90;99.90;;;;;;5005337;28;20112;-66
2024/03/15 06:44:50;;;;;;;17.15;2.35;;;12.00;99.90;;;;;;5006187;28;20082;-65
2024/03/15 06:47:28;;;;;;;24.42;5.70;;;12.00;99.90;;;;;;5007508;28;20053;-66
2024/03/15 06:50:06;;;;;;;18.85;2.90;;;12.00;99.90;;;;;;4997256;28;20047;-66
2024/03/15 06:52:36;;;;;;;17.48;2.60;;;12.00;99.90;;;;;;4661400;28;10000599;-66
2024/03/15 06:55:05;;;;;;;24.27;4.25;;;12.10;99.90;;;;;;5003174;28;20053;-67
2024/03/15 06:57:32;;;;;;;23.08;3.95;;;12.00;99.90;;;;;;5003275;28;20058;-66
2024/03/15 07:00:09;;;;;;;15.48;3.60;;;12.10;99.90;;;;;;4996654;28;20057;-65
2024/03/15 07:02:41;;;;;;;21.25;3.47;;;12.10;99.90;;;;;;5001377;28;20330;-68
2024/03/15 07:05:10;;;;;;;15.05;2.53;;;12.10;99.90;;;;;;5002051;28;20577;-68
2024/03/15 07:07:38;;;;;;;12.43;2.40;;;12.20;99.90;;;;;;5000747;28;20412;-69
2024/03/15 07:10:06;;;;;;;18.58;3.22;;;12.00;99.90;;;;;;5002616;28;20127;-68
2024/03/15 07:12:34;;;;;;;12.70;2.55;;;12.00;99.90;;;;;;5000970;28;20058;-69
2024/03/15 07:15:04;;;;;;;11.82;1.88;;;12.00;99.90;;;;;;5002669;28;20046;-69
2024/03/15 07:17:34;;;;;;;8.32;1.50;;;12.00;99.90;;;;;;4998712;28;20053;-68
2024/03/15 07:20:03;;;;;;;10.98;1.85;;;12.00;99.90;;;;;;4997879;28;20386;-67
2024/03/15 07:22:30;;;;;;;4.50;1.30;;;12.00;99.90;;;;;;4999131;28;20209;-68
2024/03/15 07:24:59;;;;;;;7.38;1.00;;;12.00;99.90;;;;;;4999558;28;20053;-66
2024/03/15 07:27:26;;;;;;;6.80;1.45;;;12.00;99.90;;;;;;4999261;28;20050;-66
2024/03/15 07:29:53;;;;;;;6.35;1.02;;;12.00;99.90;;;;;;5002990;28;20430;-69
2024/03/15 07:32:20;;;;;;;7.47;1.83;;;12.00;99.90;;;;;;4999280;28;20081;-69
2024/03/15 07:34:48;;;;;;;7.25;1.38;;;12.00;99.90;;;;;;5003616;28;20402;-67
2024/03/15 07:37:16;;;;;;;6.22;1.50;;;12.10;99.90;;;;;;5005102;28;20427;-69
2024/03/15 07:39:44;;;;;;;5.85;1.50;;;12.10;99.90;;;;;;5002174;28;20054;-69
2024/03/15 07:42:11;;;;;;;10.50;1.85;;;12.20;99.90;;;;;;5004812;28;20096;-68
2024/03/15 07:44:38;;;;;;;7.15;1.77;;;12.20;99.90;;;;;;5005126;28;20053;-65
2024/03/15 07:47:06;;;;;;;11.15;2.00;;;12.20;99.90;;;;;;5002250;28;20455;-68
2024/03/15 07:49:33;;;;;;;13.98;2.33;;;12.30;99.90;;;;;;5004541;28;20057;-68
2024/03/15 07:52:00;;;;;;;13.27;2.40;;;12.30;99.90;;;;;;5000894;28;20077;-68
2024/03/15 07:54:27;;;;;;;20.95;3.38;;;12.40;99.90;;;;;;5002246;28;20046;-69
2024/03/15 07:56:54;;;;;;;15.95;2.72;;;12.40;99.90;;;;;;5001362;28;20235;-69
2024/03/15 07:59:21;;;;;;;10.50;3.38;;;12.40;99.90;;;;;;5016568;28;20050;-68
2024/03/15 08:01:48;;;;;;;15.95;3.75;;;12.50;99.90;;;;;;5000761;28;20050;-69
2024/03/15 08:04:15;;;;;;;18.60;3.33;;;12.50;99.90;;;;;;5002573;28;20115;-69
2024/03/15 08:06:42;;;;;;;25.83;4.75;;;12.50;99.90;;;;;;4999519;28;20493;-69
2024/03/15 08:09:11;;;;;;;16.90;3.70;;;12.50;99.90;;;;;;5002730;28;20049;-68
2024/03/15 08:11:38;;;;;;;20.02;4.10;;;12.50;99.90;;;;;;4998456;28;20046;-69
2024/03/15 08:14:05;;;;;;;21.40;4.63;;;12.60;99.90;;;;;;4997609;28;20399;-68
2024/03/15 08:16:35;;;;;;;28.02;5.38;;;12.60;99.90;;;;;;5000306;28;20347;-67
2024/03/15 08:19:07;;;;;;;15.18;3.65;;;12.70;99.90;;;;;;5000770;28;20041;-65
2024/03/15 08:21:36;;;;;;;28.00;5.90;;;12.80;99.90;;;;;;4997278;28;20050;-65
2024/03/15 08:24:04;;;;;;;30.15;5.55;;;12.80;99.90;;;;;;4998141;28;20132;-65
2024/03/15 08:26:32;;;;;;;26.80;5.72;;;12.80;99.90;;;;;;5015146;28;20054;-65
2024/03/15 08:29:02;;;;;;;17.90;4.25;;;12.90;99.90;;;;;;5002191;28;20328;-66
2024/03/15 08:31:32;;;;;;;14.48;4.00;;;12.90;99.90;;;;;;5005472;28;20045;-65
2024/03/15 08:34:02;;;;;;;17.10;3.30;;;13.00;99.90;;;;;;5005928;28;20046;-65
2024/03/15 08:36:32;;;;;;;41.45;7.20;;;13.00;99.90;;;;;;5006251;28;20458;-65
2024/03/15 08:38:59;;;;;;;29.50;3.70;;;13.00;99.90;;;;;;5003649;28;20116;-65
2024/03/15 08:41:26;;;;;;;24.25;4.40;;;13.00;99.90;;;;;;5008156;28;20050;-66
2024/03/15 08:43:53;;;;;;;30.05;5.85;;;13.10;99.90;;;;;;5003415;28;20050;-65
2024/03/15 08:46:20;;;;;;;23.90;4.82;;;13.10;99.90;;;;;;5008418;28;20108;-66
2024/03/15 08:48:48;;;;;;;26.20;5.97;;;13.20;99.90;;;;;;5001588;28;20108;-65
2024/03/15 08:51:15;;;;;;;34.22;4.80;;;13.20;99.90;;;;;;5007571;28;20137;-65
2024/03/15 08:53:42;;;;;;;24.08;5.03;;;13.20;99.90;;;;;;5020572;28;20433;-66
2024/03/15 08:56:09;;;;;;;20.17;4.28;;;13.20;99.90;;;;;;5005776;28;20060;-63
2024/03/15 08:58:36;;;;;;;23.98;4.03;;;13.20;99.90;;;;;;5002772;28;20089;-66
2024/03/15 09:01:04;;;;;;;35.67;6.03;;;13.30;99.90;;;;;;5003975;28;20413;-64
2024/03/15 09:03:34;;;;;;;31.33;4.93;;;13.40;99.90;;;;;;5005673;28;20137;-64
2024/03/15 09:06:08;;;;;;;23.30;4.30;;;13.60;99.90;;;;;;5005918;28;20046;-65
2024/03/15 09:08:36;;;;;;;30.70;5.03;;;13.70;99.90;;;;;;5006847;28;20053;-65
2024/03/15 09:11:03;;;;;;;28.08;4.70;;;13.80;99.90;;;;;;5006310;28;20437;-64
2024/03/15 09:13:30;;;;;;;29.92;6.05;;;13.80;99.90;;;;;;5006981;28;20069;-64
2024/03/15 09:16:01;;;;;;;32.80;5.20;;;13.70;99.90;;;;;;5006401;28;20046;-64
2024/03/15 09:18:29;;;;;;;25.95;5.10;;;13.80;99.90;;;;;;5004605;28;20058;-65
2024/03/15 09:20:56;;;;;;;27.67;4.35;;;13.70;99.90;;;;;;5006131;28;20060;-64
2024/03/15 09:23:24;;;;;;;19.88;3.80;;;13.80;99.90;;;;;;5000199;28;20045;-65
2024/03/15 09:25:51;;;;;;;26.02;5.15;;;13.90;99.90;;;;;;5006115;28;20046;-65
2024/03/15 09:28:18;;;;;;;19.20;5.20;;;13.90;99.90;;;;;;5008435;28;20042;-65
2024/03/15 09:30:49;;;;;;;26.42;5.40;;;13.60;99.90;;;;;;5006742;28;20436;-65
2024/03/15 09:33:34;;;;;;;28.35;5.80;;;13.70;99.90;;;;;;5006805;28;20073;-65
2024/03/15 09:36:05;;;;;;;32.38;6.85;;;13.70;99.90;;;;;;5005029;28;20046;-65
2024/03/15 09:38:33;;;;;;;16.90;4.25;;;13.70;99.90;;;;;;5000917;28;21212;-65
2024/03/15 09:41:00;;;;;;;24.08;5.32;;;13.90;99.90;;;;;;5003104;28;20049;-65
2024/03/15 09:43:27;;;;;;;31.17;5.15;;;13.90;99.90;;;;;;5007273;28;20046;-65
2024/03/15 09:45:54;;;;;;;23.73;6.15;;;13.90;99.90;;;;;;5006823;28;20476;-64
2024/03/15 09:48:21;;;;;;;23.85;5.00;;;13.90;99.90;;;;;;5019127;28;20042;-65
2024/03/15 09:50:48;;;;;;;32.78;5.50;;;13.90;99.90;;;;;;5008912;28;20127;-65
2024/03/15 09:53:16;;;;;;;26.80;4.60;;;14.10;99.90;;;;;;5023449;28;20435;-65
2024/03/15 09:55:43;;;;;;;21.77;4.20;;;14.40;99.90;;;;;;5022065;28;20037;-65
2024/03/15 09:58:10;;;;;;;33.17;5.47;;;14.50;99.90;;;;;;5023298;28;20100;-65
2024/03/15 10:00:38;;;;;;;21.35;4.30;;;14.60;99.90;;;;;;5006645;28;20046;-65
2024/03/15 10:03:07;;;;;;;27.48;5.50;;;14.80;99.90;;;;;;5022624;28;20052;-65
2024/03/15 10:05:34;;;;;;;21.95;4.53;;;14.80;99.90;;;;;;5005604;28;20073;-65
2024/03/15 10:08:01;;;;;;;24.73;5.78;;;14.90;99.90;;;;;;5008453;28;20065;-65
2024/03/15 10:10:29;;;;;;;30.63;4.75;;;14.80;99.90;;;;;;5003624;28;20053;-66
2024/03/15 10:12:55;;;;;;;19.90;5.00;;;14.70;99.90;;;;;;5006643;28;20092;-65
2024/03/15 10:15:24;;;;;;;26.80;6.20;;;14.60;99.90;;;;;;5006111;28;20423;-65
2024/03/15 10:17:54;;;;;;;23.70;4.57;;;14.50;99.90;;;;;;5006573;28;20132;-65
2024/03/15 10:20:24;;;;;;;23.90;4.07;;;14.40;99.90;;;;;;5010125;28;20076;-67
2024/03/15 10:22:52;;;;;;;18.70;4.07;;;14.40;99.90;;;;;;5006716;28;20080;-65
2024/03/15 10:25:21;;;;;;;29.33;6.07;;;14.40;99.90;;;;;;5005613;28;20476;-65
2024/03/15 10:27:54;;;;;;;27.50;4.47;;;14.50;99.90;;;;;;5004875;28;20045;-65
2024/03/15 10:30:25;;;;;;;23.50;4.57;;;14.50;99.90;;;;;;5002570;28;20061;-64
2024/03/15 10:32:53;;;;;;;23.75;4.55;;;14.50;99.90;;;;;;5001699;28;20045;-64
2024/03/15 10:35:24;;;;;;;18.40;4.25;;;14.50;99.90;;;;;;4997951;28;20524;-65
2024/03/15 10:37:54;;;;;;;17.65;4.13;;;14.50;99.90;;;;;;5004363;28;20598;-65
2024/03/15 10:40:23;;;;;;;28.85;4.50;;;14.50;99.90;;;;;;5005727;28;20501;-65
2024/03/15 10:42:54;;;;;;;24.38;4.95;;;14.40;99.90;;;;;;5010379;28;20041;-65
2024/03/15 10:45:25;;;;;;;41.38;4.97;;;14.30;99.90;;;;;;5005894;28;20051;-65
2024/03/15 10:47:56;;;;;;;36.03;4.72;;;14.40;99.90;;;;;;5007085;28;20054;-65
2024/03/15 10:50:24;;;;;;;21.95;5.07;;;14.50;99.90;;;;;;5004100;28;20453;-65
2024/03/15 10:52:52;;;;;;;32.15;5.85;;;14.40;99.90;;;;;;5021939;28;20508;-65
2024/03/15 10:55:28;;;;;;;19.75;5.03;;;14.50;99.90;;;;;;5004994;28;20563;-65
2024/03/15 10:57:56;;;;;;;23.13;4.03;;;14.60;99.90;;;;;;5006365;28;20061;-64
2024/03/15 11:00:24;;;;;;;28.25;5.57;;;14.60;99.90;;;;;;5000803;28;20054;-65
2024/03/15 11:02:55;;;;;;;23.42;5.65;;;14.70;99.90;;;;;;5005422;28;20045;-65
2024/03/15 11:05:26;;;;;;;30.70;4.88;;;14.80;99.90;;;;;;5020515;28;20135;-65
2024/03/15 11:08:05;;;;;;;23.42;4.95;;;15.10;99.90;;;;;;5021720;28;20050;-64
2024/03/15 11:10:32;;;;;;;19.80;4.85;;;15.20;99.90;;;;;;5003804;28;20049;-64
2024/03/15 11:13:01;;;;;;;23.42;4.53;;;15.20;99.90;;;;;;5005441;28;20144;-64
2024/03/15 11:15:38;;;;;;;20.23;4.80;;;15.20;99.90;;;;;;5018778;28;20042;-64
2024/03/15 11:18:08;;;;;;;26.45;4.55;;;15.10;99.90;;;;;;5006877;28;20058;-64
2024/03/15 11:20:53;;;;;;;26.20;4.82;;;14.90;99.90;;;;;;5001850;28;20261;-65
2024/03/15 11:23:27;;;;;;;26.55;5.68;;;14.80;99.90;;;;;;5007391;28;20085;-65
2024/03/15 11:26:00;;;;;;;23.95;5.40;;;14.40;99.90;;;;;;5019156;28;20086;-65
2024/03/15 11:28:31;;;;;;;25.92;4.68;;;14.40;99.90;;;;;;5004347;28;20417;-64
2024/03/15 11:30:58;;;;;;;19.90;4.15;;;14.40;99.90;;;;;;5001204;28;20366;-66
2024/03/15 11:33:26;;;;;;;27.88;4.07;;;14.50;99.90;;;;;;5005345;28;20050;-66
2024/03/15 11:35:53;;;;;;;24.92;4.57;;;14.50;99.90;;;;;;5005672;28;20567;-66
2024/03/15 11:38:20;;;;;;;33.58;5.28;;;14.70;99.90;;;;;;5006954;28;20049;-65
2024/03/15 11:40:47;;;;;;;26.65;5.47;;;14.80;99.90;;;;;;5017181;28;20042;-65
2024/03/15 11:43:14;;;;;;;24.77;4.22;;;15.00;99.90;;;;;;5005624;28;20034;-65
2024/03/15 11:45:42;;;;;;;28.60;4.57;;;15.10;99.90;;;;;;5005127;28;20042;-65
2024/03/15 11:48:16;;;;;;;28.40;5.32;;;15.20;99.90;;;;;;5007383;28;20569;-65
2024/03/15 11:50:44;;;;;;;33.10;5.65;;;15.20;99.90;;;;;;5003760;28;20060;-65
2024/03/15 11:53:12;;;;;;;33.28;6.45;;;15.30;99.90;;;;;;5005715;28;20335;-65
2024/03/15 11:55:40;;;;;;;26.23;5.50;;;15.30;99.90;;;;;;5008958;28;20041;-65
2024/03/15 11:58:17;;;;;;;30.75;5.70;;;15.40;99.90;;;;;;5003825;28;20076;-66
2024/03/15 12:00:53;;;;;;;25.67;6.07;;;15.40;99.90;;;;;;5006931;28;20076;-65
2024/03/15 12:03:22;;;;;;;24.35;4.97;;;15.40;99.90;;;;;;5003282;28;20129;-64
2024/03/15 12:05:50;;;;;;;27.20;5.32;;;15.50;99.90;;;;;;5002781;28;20416;-65
2024/03/15 12:08:22;;;;;;;32.50;7.03;;;15.60;99.90;;;;;;5008716;28;20516;-64
2024/03/15 12:10:49;;;;;;;14.82;4.25;;;15.70;99.90;;;;;;5007765;28;20050;-65
2024/03/15 12:13:27;;;;;;;25.58;5.40;;;15.70;99.90;;;;;;5011131;28;20340;-64
2024/03/15 12:15:54;;;;;;;34.90;6.07;;;15.60;99.90;;;;;;4997695;28;20629;-64
2024/03/15 12:18:24;;;;;;;24.88;4.25;;;15.60;99.90;;;;;;5026966;28;20068;-65
2024/03/15 12:20:52;;;;;;;31.95;6.93;;;15.60;99.90;;;;;;5002866;28;20042;-64
2024/03/15 12:23:20;;;;;;;26.70;5.55;;;15.40;99.90;;;;;;5009155;28;20065;-64
2024/03/15 12:25:48;;;;;;;34.97;5.53;;;15.50;99.90;;;;;;4999090;28;20555;-65
2024/03/15 12:28:17;;;;;;;24.83;5.43;;;15.50;99.90;;;;;;5005268;28;20543;-65
2024/03/15 12:30:45;;;;;;;27.85;5.38;;;15.60;99.90;;;;;;5001352;28;20365;-65
2024/03/15 12:33:12;;;;;;;20.25;4.43;;;15.70;99.90;;;;;;5008637;28;20162;-65
2024/03/15 12:35:40;;;;;;;52.33;7.07;;;15.80;99.90;;;;;;5001686;28;20045;-65
2024/03/15 12:38:11;;;;;;;35.03;5.90;;;15.70;99.90;;;;;;5009910;28;20049;-65
2024/03/15 12:40:44;;;;;;;29.02;5.63;;;15.60;99.90;;;;;;5002821;28;20583;-65
2024/03/15 12:43:11;;;;;;;21.20;4.80;;;15.80;99.90;;;;;;5005086;28;20044;-65
2024/03/15 12:45:41;;;;;;;22.40;4.75;;;15.90;99.90;;;;;;5008432;28;20575;-66